createdAt,value
2018-07-26T00:00:17.900Z,22.8
2018-07-26T00:01:17.618Z,22.8
2018-07-26T00:02:17.607Z,22.75
2018-07-26T00:03:17.601Z,22.84
2018-07-26T00:04:17.589Z,22.84
2018-07-26T00:05:17.842Z,22.83
2018-07-26T00:06:17.576Z,22.82
2018-07-26T00:07:17.824Z,22.74
2018-07-26T00:08:17.819Z,22.78
2018-07-26T00:09:17.558Z,22.83
2018-07-26T00:10:17.276Z,22.8
2018-07-26T00:11:17.532Z,22.72
2018-07-26T00:12:17.992Z,22.75
2018-07-26T00:13:17.523Z,22.71
2018-07-26T00:14:17.773Z,22.8
2018-07-26T00:15:17.498Z,22.72
2018-07-26T00:16:17.762Z,22.82
2018-07-26T00:17:17.223Z,22.75
2018-07-26T00:18:17.473Z,22.74
2018-07-26T00:19:17.203Z,22.82
2018-07-26T00:20:17.462Z,22.86
2018-07-26T00:21:17.192Z,22.74
2018-07-26T00:22:17.449Z,22.74
2018-07-26T00:23:17.703Z,22.84
2018-07-26T00:24:17.430Z,22.69
2018-07-26T00:25:17.683Z,22.71
2018-07-26T00:26:17.146Z,22.8
2018-07-26T00:27:17.138Z,22.56
2018-07-26T00:28:17.398Z,22.64
2018-07-26T00:29:17.657Z,22.64
2018-07-26T00:30:17.651Z,22.52
2018-07-26T00:31:17.379Z,22.59
2018-07-26T00:32:17.376Z,22.65
2018-07-26T00:33:17.364Z,22.62
2018-07-26T00:34:17.619Z,22.6
2018-07-26T00:35:17.611Z,22.56
2018-07-26T00:36:17.073Z,22.6
2018-07-26T00:37:17.593Z,22.57
2018-07-26T00:38:17.584Z,22.59
2018-07-26T00:39:17.325Z,22.54
2018-07-26T00:40:17.307Z,22.53
2018-07-26T00:41:17.689Z,22.44
2018-07-26T00:42:17.283Z,22.47
2018-07-26T00:43:17.023Z,22.46
2018-07-26T00:44:17.277Z,22.5
2018-07-26T00:45:17.289Z,22.39
2018-07-26T00:46:17.243Z,22.49
2018-07-26T00:47:17.502Z,22.49
2018-07-26T00:48:17.234Z,22.5
2018-07-26T00:49:17.505Z,22.49
2018-07-26T00:50:17.489Z,22.47
2018-07-26T00:51:16.956Z,22.43
2018-07-26T00:52:17.207Z,22.39
2018-07-26T00:53:17.189Z,22.34
2018-07-26T00:54:17.450Z,22.37
2018-07-26T00:55:17.195Z,22.35
2018-07-26T00:56:17.171Z,22.46
2018-07-26T00:57:17.422Z,22.34
2018-07-26T00:58:17.424Z,22.35
2018-07-26T00:59:17.163Z,22.35
2018-07-26T01:00:17.397Z,22.28
2018-07-26T01:01:17.398Z,22.32
2018-07-26T01:02:17.124Z,22.35
2018-07-26T01:03:17.377Z,22.35
2018-07-26T01:04:17.096Z,22.29
2018-07-26T01:05:16.826Z,22.38
2018-07-26T01:06:17.082Z,22.32
2018-07-26T01:07:16.817Z,22.34
2018-07-26T01:08:16.803Z,22.38
2018-07-26T01:09:17.064Z,22.34
2018-07-26T01:10:17.316Z,22.32
2018-07-26T01:11:17.048Z,22.35
2018-07-26T01:12:17.298Z,22.31
2018-07-26T01:13:17.029Z,22.34
2018-07-26T01:14:17.283Z,22.41
2018-07-26T01:15:16.742Z,22.32
2018-07-26T01:16:17.262Z,22.37
2018-07-26T01:17:17.000Z,22.34
2018-07-26T01:18:16.715Z,22.35
2018-07-26T01:19:17.238Z,22.34
2018-07-26T01:20:17.229Z,22.28
2018-07-26T01:21:16.952Z,22.28
2018-07-26T01:22:16.943Z,22.34
2018-07-26T01:23:16.675Z,22.29
2018-07-26T01:24:16.932Z,22.32
2018-07-26T01:25:16.925Z,22.32
2018-07-26T01:26:16.911Z,22.27
2018-07-26T01:27:16.645Z,22.27
2018-07-26T01:28:17.160Z,22.31
2018-07-26T01:29:16.632Z,22.28
2018-07-26T01:30:17.145Z,22.2
2018-07-26T01:31:17.131Z,22.16
2018-07-26T01:32:16.920Z,22.19
2018-07-26T01:33:17.115Z,22.09
2018-07-26T01:34:16.577Z,22.19
2018-07-26T01:35:17.104Z,22.23
2018-07-26T01:36:17.103Z,22.19
2018-07-26T01:37:16.817Z,22.13
2018-07-26T01:38:16.826Z,22.1
2018-07-26T01:39:16.803Z,22.07
2018-07-26T01:40:16.802Z,22.02
2018-07-26T01:41:16.786Z,22.09
2018-07-26T01:42:17.059Z,22.09
2018-07-26T01:43:16.777Z,22.1
2018-07-26T01:44:17.029Z,22.04
2018-07-26T01:45:16.753Z,22.06
2018-07-26T01:46:17.009Z,22.02
2018-07-26T01:47:16.735Z,21.98
2018-07-26T01:48:16.734Z,21.97
2018-07-26T01:49:16.717Z,21.97
2018-07-26T01:50:16.710Z,21.97
2018-07-26T01:51:16.698Z,21.97
2018-07-26T01:52:16.693Z,21.97
2018-07-26T01:53:16.949Z,21.95
2018-07-26T01:54:16.417Z,21.9
2018-07-26T01:55:16.931Z,21.91
2018-07-26T01:56:16.933Z,21.94
2018-07-26T01:57:16.384Z,21.88
2018-07-26T01:58:16.642Z,21.92
2018-07-26T01:59:16.637Z,21.94
2018-07-26T02:00:16.632Z,21.85
2018-07-26T02:01:16.617Z,21.91
2018-07-26T02:02:16.873Z,21.74
2018-07-26T02:03:16.865Z,21.85
2018-07-26T02:04:16.327Z,21.72
2018-07-26T02:05:16.849Z,21.69
2018-07-26T02:06:16.574Z,21.66
2018-07-26T02:07:16.571Z,21.61
2018-07-26T02:08:16.556Z,21.63
2018-07-26T02:09:16.551Z,21.6
2018-07-26T02:10:16.274Z,21.59
2018-07-26T02:11:16.528Z,21.53
2018-07-26T02:12:16.517Z,21.59
2018-07-26T02:13:16.720Z,21.51
2018-07-26T02:14:16.509Z,21.56
2018-07-26T02:15:16.763Z,21.56
2018-07-26T02:16:16.747Z,21.5
2018-07-26T02:17:16.477Z,21.54
2018-07-26T02:18:16.741Z,21.51
2018-07-26T02:19:16.461Z,21.64
2018-07-26T02:20:16.454Z,21.54
2018-07-26T02:21:16.442Z,21.56
2018-07-26T02:22:16.699Z,21.56
2018-07-26T02:23:16.691Z,21.53
2018-07-26T02:24:16.695Z,21.56
2018-07-26T02:25:16.415Z,21.54
2018-07-26T02:26:16.662Z,21.51
2018-07-26T02:27:16.132Z,21.5
2018-07-26T02:28:16.382Z,21.46
2018-07-26T02:29:16.114Z,21.48
2018-07-26T02:30:16.365Z,21.41
2018-07-26T02:31:16.742Z,21.36
2018-07-26T02:32:16.610Z,21.35
2018-07-26T02:33:16.075Z,21.32
2018-07-26T02:34:16.328Z,21.26
2018-07-26T02:35:16.322Z,21.35
2018-07-26T02:36:16.327Z,21.29
2018-07-26T02:37:16.582Z,21.29
2018-07-26T02:38:16.312Z,21.23
2018-07-26T02:39:16.305Z,21.3
2018-07-26T02:40:16.283Z,21.29
2018-07-26T02:41:16.535Z,21.27
2018-07-26T02:42:15.995Z,21.29
2018-07-26T02:43:16.252Z,21.29
2018-07-26T02:44:16.503Z,21.27
2018-07-26T02:45:16.230Z,21.3
2018-07-26T02:46:16.229Z,21.3
2018-07-26T02:47:16.477Z,21.32
2018-07-26T02:48:16.502Z,21.3
2018-07-26T02:49:16.464Z,21.27
2018-07-26T02:50:16.449Z,21.26
2018-07-26T02:51:16.184Z,21.3
2018-07-26T02:52:16.179Z,21.27
2018-07-26T02:53:16.169Z,21.26
2018-07-26T02:54:16.413Z,21.3
2018-07-26T02:55:16.418Z,21.27
2018-07-26T02:56:16.133Z,21.26
2018-07-26T02:57:16.388Z,21.23
2018-07-26T02:58:16.382Z,21.2
2018-07-26T02:59:16.103Z,21.17
2018-07-26T03:00:15.831Z,21.09
2018-07-26T03:01:16.367Z,21.09
2018-07-26T03:02:15.812Z,21.17
2018-07-26T03:03:15.808Z,21.11
2018-07-26T03:04:15.798Z,21.11
2018-07-26T03:05:15.788Z,21.26
2018-07-26T03:06:16.314Z,21.16
2018-07-26T03:07:16.600Z,21.23
2018-07-26T03:08:16.024Z,21.21
2018-07-26T03:09:16.029Z,21.17
2018-07-26T03:10:16.269Z,21.2
2018-07-26T03:11:16.003Z,21.11
2018-07-26T03:12:16.257Z,21.05
2018-07-26T03:13:15.986Z,21.11
2018-07-26T03:14:16.239Z,21.05
2018-07-26T03:15:15.966Z,20.96
2018-07-26T03:16:15.955Z,20.96
2018-07-26T03:17:15.942Z,20.98
2018-07-26T03:18:15.930Z,20.96
2018-07-26T03:19:16.195Z,20.93
2018-07-26T03:20:15.949Z,20.95
2018-07-26T03:21:16.166Z,20.91
2018-07-26T03:22:16.161Z,20.9
2018-07-26T03:23:15.902Z,20.91
2018-07-26T03:24:15.910Z,20.84
2018-07-26T03:25:16.153Z,20.9
2018-07-26T03:26:16.124Z,20.98
2018-07-26T03:27:15.590Z,20.91
2018-07-26T03:28:16.115Z,20.89
2018-07-26T03:29:16.098Z,20.81
2018-07-26T03:30:16.092Z,20.81
2018-07-26T03:31:15.552Z,20.87
2018-07-26T03:32:15.811Z,20.86
2018-07-26T03:33:15.799Z,20.84
2018-07-26T03:34:15.794Z,20.81
2018-07-26T03:35:16.045Z,20.93
2018-07-26T03:36:16.033Z,20.96
2018-07-26T03:37:15.799Z,20.89
2018-07-26T03:38:16.016Z,20.84
2018-07-26T03:39:16.008Z,20.83
2018-07-26T03:40:15.729Z,20.86
2018-07-26T03:41:15.716Z,20.81
2018-07-26T03:42:15.981Z,20.84
2018-07-26T03:43:15.707Z,20.79
2018-07-26T03:44:15.692Z,20.84
2018-07-26T03:45:15.689Z,20.81
2018-07-26T03:46:15.943Z,20.86
2018-07-26T03:47:15.926Z,20.8
2018-07-26T03:48:15.656Z,20.8
2018-07-26T03:49:15.949Z,20.81
2018-07-26T03:50:15.637Z,20.81
2018-07-26T03:51:15.769Z,20.79
2018-07-26T03:52:15.903Z,20.69
2018-07-26T03:53:15.611Z,20.8
2018-07-26T03:54:15.350Z,20.79
2018-07-26T03:55:15.594Z,20.79
2018-07-26T03:56:15.579Z,20.81
2018-07-26T03:57:15.844Z,20.79
2018-07-26T03:58:15.572Z,20.86
2018-07-26T03:59:15.557Z,20.83
2018-07-26T04:00:15.810Z,20.79
2018-07-26T04:01:15.535Z,20.9
2018-07-26T04:02:15.539Z,20.84
2018-07-26T04:03:15.567Z,20.86
2018-07-26T04:04:15.511Z,20.93
2018-07-26T04:05:15.492Z,20.84
2018-07-26T04:06:15.498Z,20.84
2018-07-26T04:07:15.495Z,20.84
2018-07-26T04:08:15.737Z,20.87
2018-07-26T04:09:15.731Z,20.86
2018-07-26T04:10:15.459Z,20.93
2018-07-26T04:11:15.440Z,20.9
2018-07-26T04:12:15.163Z,20.9
2018-07-26T04:13:15.625Z,20.91
2018-07-26T04:14:15.155Z,20.87
2018-07-26T04:15:15.675Z,20.91
2018-07-26T04:16:15.134Z,20.81
2018-07-26T04:17:15.126Z,20.96
2018-07-26T04:18:15.117Z,20.84
2018-07-26T04:19:15.640Z,20.93
2018-07-26T04:20:15.682Z,20.93
2018-07-26T04:21:15.084Z,20.95
2018-07-26T04:22:15.339Z,20.9
2018-07-26T04:23:15.600Z,20.91
2018-07-26T04:24:15.591Z,20.93
2018-07-26T04:25:15.063Z,20.95
2018-07-26T04:26:15.682Z,20.93
2018-07-26T04:27:15.562Z,20.9
2018-07-26T04:28:15.284Z,20.91
2018-07-26T04:29:15.559Z,20.93
2018-07-26T04:30:15.544Z,20.96
2018-07-26T04:31:15.527Z,20.91
2018-07-26T04:32:15.089Z,20.96
2018-07-26T04:33:14.984Z,20.95
2018-07-26T04:34:15.504Z,20.93
2018-07-26T04:35:14.968Z,20.98
2018-07-26T04:36:15.214Z,20.98
2018-07-26T04:37:15.202Z,20.96
2018-07-26T04:38:15.458Z,21.01
2018-07-26T04:39:15.195Z,20.99
2018-07-26T04:40:15.178Z,21.02
2018-07-26T04:41:15.202Z,21.08
2018-07-26T04:42:15.156Z,21.09
2018-07-26T04:43:15.415Z,21.05
2018-07-26T04:44:15.400Z,21.13
2018-07-26T04:45:15.132Z,21.08
2018-07-26T04:46:14.863Z,21.11
2018-07-26T04:47:14.861Z,21.13
2018-07-26T04:48:15.110Z,21.11
2018-07-26T04:49:15.096Z,21.17
2018-07-26T04:50:15.088Z,21.24
2018-07-26T04:51:15.074Z,21.21
2018-07-26T04:52:15.063Z,21.24
2018-07-26T04:53:15.328Z,21.29
2018-07-26T04:54:15.042Z,21.26
2018-07-26T04:55:15.056Z,21.34
2018-07-26T04:56:14.765Z,21.23
2018-07-26T04:57:15.026Z,21.35
2018-07-26T04:58:15.007Z,21.38
2018-07-26T04:59:15.009Z,21.36
2018-07-26T05:00:15.003Z,21.3
2018-07-26T05:01:14.989Z,21.38
2018-07-26T05:02:14.716Z,21.5
2018-07-26T05:03:14.701Z,21.5
2018-07-26T05:04:14.698Z,21.54
2018-07-26T05:05:14.961Z,21.54
2018-07-26T05:06:14.674Z,21.57
2018-07-26T05:07:14.662Z,21.54
2018-07-26T05:08:15.430Z,21.61
2018-07-26T05:09:15.200Z,21.6
2018-07-26T05:10:14.899Z,21.59
2018-07-26T05:11:15.190Z,21.64
2018-07-26T05:12:14.622Z,21.66
2018-07-26T05:13:15.144Z,21.69
2018-07-26T05:14:14.862Z,21.75
2018-07-26T05:15:15.137Z,21.78
2018-07-26T05:16:14.846Z,21.9
2018-07-26T05:17:15.122Z,21.78
2018-07-26T05:18:15.144Z,21.85
2018-07-26T05:19:14.992Z,21.94
2018-07-26T05:20:15.074Z,21.9
2018-07-26T05:21:15.091Z,21.83
2018-07-26T05:22:14.795Z,21.97
2018-07-26T05:23:14.797Z,22.04
2018-07-26T05:24:15.038Z,21.91
2018-07-26T05:25:15.060Z,21.97
2018-07-26T05:26:15.031Z,21.98
2018-07-26T05:27:14.485Z,22.04
2018-07-26T05:28:14.749Z,22.12
2018-07-26T05:29:14.738Z,22.04
2018-07-26T05:30:14.724Z,22.07
2018-07-26T05:31:14.981Z,22.13
2018-07-26T05:32:14.706Z,22.09
2018-07-26T05:33:14.698Z,22.19
2018-07-26T05:34:14.953Z,22.14
2018-07-26T05:35:14.688Z,22.28
2018-07-26T05:36:14.672Z,22.31
2018-07-26T05:37:14.664Z,22.34
2018-07-26T05:38:14.918Z,22.34
2018-07-26T05:39:14.920Z,22.39
2018-07-26T05:40:14.903Z,22.39
2018-07-26T05:41:14.633Z,22.46
2018-07-26T05:42:14.620Z,22.43
2018-07-26T05:43:14.714Z,22.49
2018-07-26T05:44:14.645Z,22.57
2018-07-26T05:45:14.860Z,22.64
2018-07-26T05:46:14.590Z,22.67
2018-07-26T05:47:14.845Z,22.65
2018-07-26T05:48:14.569Z,22.69
2018-07-26T05:49:14.829Z,22.72
2018-07-26T05:50:14.825Z,22.74
2018-07-26T05:51:14.550Z,22.83
2018-07-26T05:52:14.279Z,22.82
2018-07-26T05:53:14.628Z,22.78
2018-07-26T05:54:14.518Z,22.75
2018-07-26T05:55:14.515Z,22.94
2018-07-26T05:56:14.495Z,22.87
2018-07-26T05:57:14.509Z,22.86
2018-07-26T05:58:14.757Z,22.86
2018-07-26T05:59:14.485Z,22.92
2018-07-26T06:00:14.642Z,23.01
2018-07-26T06:01:14.728Z,22.99
2018-07-26T06:02:14.723Z,22.99
2018-07-26T06:03:14.453Z,23.02
2018-07-26T06:04:14.182Z,23.01
2018-07-26T06:05:14.437Z,23.05
2018-07-26T06:06:14.689Z,23.04
2018-07-26T06:07:14.413Z,23.04
2018-07-26T06:08:14.675Z,23.05
2018-07-26T06:09:14.665Z,23.12
2018-07-26T06:10:14.660Z,23.14
2018-07-26T06:11:14.396Z,23.14
2018-07-26T06:12:14.383Z,23.09
2018-07-26T06:13:14.624Z,23.17
2018-07-26T06:14:14.362Z,23.24
2018-07-26T06:15:14.347Z,23.29
2018-07-26T06:16:14.077Z,23.27
2018-07-26T06:17:14.120Z,23.31
2018-07-26T06:18:14.400Z,23.32
2018-07-26T06:19:14.059Z,23.24
2018-07-26T06:20:14.599Z,23.45
2018-07-26T06:21:14.574Z,23.45
2018-07-26T06:22:14.046Z,23.45
2018-07-26T06:23:14.289Z,23.42
2018-07-26T06:24:14.288Z,23.46
2018-07-26T06:25:14.549Z,23.45
2018-07-26T06:26:14.274Z,23.5
2018-07-26T06:27:14.527Z,23.52
2018-07-26T06:28:14.678Z,23.57
2018-07-26T06:29:13.975Z,23.65
2018-07-26T06:30:14.553Z,23.64
2018-07-26T06:31:13.963Z,23.68
2018-07-26T06:32:13.953Z,23.72
2018-07-26T06:33:14.216Z,23.79
2018-07-26T06:34:14.216Z,23.83
2018-07-26T06:35:14.460Z,23.86
2018-07-26T06:36:13.936Z,23.86
2018-07-26T06:37:14.181Z,23.92
2018-07-26T06:38:14.172Z,23.94
2018-07-26T06:39:13.911Z,23.98
2018-07-26T06:40:14.162Z,24.08
2018-07-26T06:41:14.153Z,24.01
2018-07-26T06:42:13.884Z,24.08
2018-07-26T06:43:14.134Z,24.08
2018-07-26T06:44:14.124Z,24.19
2018-07-26T06:45:14.384Z,24.19
2018-07-26T06:46:14.118Z,24.32
2018-07-26T06:47:14.220Z,24.34
2018-07-26T06:48:14.102Z,24.32
2018-07-26T06:49:14.096Z,24.42
2018-07-26T06:50:13.829Z,24.49
2018-07-26T06:51:14.338Z,24.47
2018-07-26T06:52:13.810Z,24.59
2018-07-26T06:53:14.577Z,24.53
2018-07-26T06:54:14.334Z,24.56
2018-07-26T06:55:14.322Z,24.64
2018-07-26T06:56:14.045Z,24.64
2018-07-26T06:57:14.036Z,24.76
2018-07-26T06:58:14.039Z,24.73
2018-07-26T06:59:14.291Z,24.8
2018-07-26T07:00:13.754Z,24.77
2018-07-26T07:01:14.007Z,24.79
2018-07-26T07:02:13.999Z,24.79
2018-07-26T07:03:14.261Z,24.77
2018-07-26T07:04:13.730Z,24.83
2018-07-26T07:05:14.294Z,24.92
2018-07-26T07:06:13.977Z,24.95
2018-07-26T07:07:14.233Z,24.97
2018-07-26T07:08:14.231Z,24.97
2018-07-26T07:09:13.956Z,24.94
2018-07-26T07:10:14.094Z,24.97
2018-07-26T07:11:13.949Z,25.01
2018-07-26T07:12:14.212Z,24.95
2018-07-26T07:13:13.930Z,24.91
2018-07-26T07:14:14.189Z,25.06
2018-07-26T07:15:13.928Z,25.02
2018-07-26T07:16:14.172Z,25.06
2018-07-26T07:17:13.904Z,25.16
2018-07-26T07:18:13.633Z,25.19
2018-07-26T07:19:13.633Z,25.15
2018-07-26T07:20:13.879Z,25.22
2018-07-26T07:21:13.611Z,25.31
2018-07-26T07:22:13.869Z,25.43
2018-07-26T07:23:14.123Z,25.38
2018-07-26T07:24:14.129Z,25.5
2018-07-26T07:25:13.847Z,25.47
2018-07-26T07:26:14.203Z,25.53
2018-07-26T07:27:14.103Z,25.5
2018-07-26T07:28:13.574Z,25.56
2018-07-26T07:29:14.130Z,25.67
2018-07-26T07:30:14.085Z,25.68
2018-07-26T07:31:13.813Z,25.8
2018-07-26T07:32:14.073Z,25.82
2018-07-26T07:33:13.546Z,25.84
2018-07-26T07:34:14.060Z,25.86
2018-07-26T07:35:13.788Z,25.98
2018-07-26T07:36:13.785Z,26.05
2018-07-26T07:37:13.777Z,26.2
2018-07-26T07:38:14.085Z,27.01
2018-07-26T07:39:14.030Z,27.91
2018-07-26T07:40:13.778Z,28.72
2018-07-26T07:41:14.023Z,29.57
2018-07-26T07:42:13.750Z,30.33
2018-07-26T07:43:14.011Z,30.96
2018-07-26T07:44:13.482Z,31.5
2018-07-26T07:45:13.473Z,32.02
2018-07-26T07:46:13.740Z,32.61
2018-07-26T07:47:13.478Z,33.03
2018-07-26T07:48:13.735Z,33.41
2018-07-26T07:49:13.734Z,33.8
2018-07-26T07:50:13.722Z,34.19
2018-07-26T07:51:13.725Z,34.46
2018-07-26T07:52:13.718Z,34.84
2018-07-26T07:53:13.994Z,35.23
2018-07-26T07:54:13.976Z,35.63
2018-07-26T07:55:13.978Z,35.79
2018-07-26T07:56:13.982Z,36.08
2018-07-26T07:57:13.978Z,36.29
2018-07-26T07:58:13.447Z,36.65
2018-07-26T07:59:13.716Z,36.76
2018-07-26T08:00:13.981Z,36.98
2018-07-26T08:01:13.448Z,37.19
2018-07-26T08:02:13.982Z,37.41
2018-07-26T08:03:13.720Z,37.58
2018-07-26T08:04:13.449Z,37.76
2018-07-26T08:05:13.834Z,37.99
2018-07-26T08:06:13.983Z,38.15
2018-07-26T08:07:13.978Z,38.41
2018-07-26T08:08:13.712Z,38.41
2018-07-26T08:09:13.992Z,38.6
2018-07-26T08:10:13.720Z,38.68
2018-07-26T08:11:13.842Z,38.95
2018-07-26T08:12:13.991Z,38.96
2018-07-26T08:13:13.925Z,39.25
2018-07-26T08:14:13.725Z,39.49
2018-07-26T08:15:13.732Z,39.71
2018-07-26T08:16:13.739Z,39.76
2018-07-26T08:17:13.743Z,39.93
2018-07-26T08:18:13.741Z,40.08
2018-07-26T08:19:13.473Z,40.14
2018-07-26T08:20:13.746Z,40.29
2018-07-26T08:21:14.053Z,40.33
2018-07-26T08:22:13.758Z,40.4
2018-07-26T08:23:13.757Z,40.49
2018-07-26T08:24:14.025Z,40.59
2018-07-26T08:25:13.761Z,40.72
2018-07-26T08:26:14.030Z,40.81
2018-07-26T08:27:14.033Z,40.9
2018-07-26T08:28:13.771Z,40.83
2018-07-26T08:29:14.040Z,40.54
2018-07-26T08:30:13.521Z,39.9
2018-07-26T08:31:13.785Z,39.22
2018-07-26T08:32:13.528Z,38.76
2018-07-26T08:33:13.792Z,38.38
2018-07-26T08:34:14.070Z,38.34
2018-07-26T08:35:13.933Z,38.46
2018-07-26T08:36:14.096Z,38.48
2018-07-26T08:37:13.814Z,38.27
2018-07-26T08:38:14.079Z,38.53
2018-07-26T08:39:13.557Z,39.05
2018-07-26T08:40:13.828Z,39.28
2018-07-26T08:41:13.987Z,39.65
2018-07-26T08:42:14.102Z,40.05
2018-07-26T08:43:14.106Z,40.29
2018-07-26T08:44:13.861Z,40.54
2018-07-26T08:45:14.118Z,40.36
2018-07-26T08:46:13.851Z,39.84
2018-07-26T08:47:14.127Z,39.22
2018-07-26T08:48:13.972Z,38.63
2018-07-26T08:49:13.873Z,38.15
2018-07-26T08:50:13.867Z,37.71
2018-07-26T08:51:13.884Z,37.24
2018-07-26T08:52:13.638Z,36.76
2018-07-26T08:53:14.140Z,36.24
2018-07-26T08:54:13.669Z,35.88
2018-07-26T08:55:13.885Z,35.69
2018-07-26T08:56:13.625Z,35.28
2018-07-26T08:57:13.624Z,35.11
2018-07-26T08:58:13.894Z,34.83
2018-07-26T08:59:13.896Z,34.63
2018-07-26T09:00:14.165Z,34.44
2018-07-26T09:01:14.377Z,34.36
2018-07-26T09:02:13.640Z,34.23
2018-07-26T09:03:14.163Z,34.09
2018-07-26T09:04:14.176Z,34.07
2018-07-26T09:05:13.896Z,33.85
2018-07-26T09:06:13.902Z,33.94
2018-07-26T09:07:13.900Z,33.85
2018-07-26T09:08:13.644Z,33.89
2018-07-26T09:09:14.198Z,33.82
2018-07-26T09:10:14.180Z,33.82
2018-07-26T09:11:13.914Z,33.97
2018-07-26T09:12:13.908Z,34.2
2018-07-26T09:13:14.174Z,34.22
2018-07-26T09:14:14.172Z,34.29
2018-07-26T09:15:14.177Z,34.38
2018-07-26T09:16:14.184Z,34.39
2018-07-26T09:17:13.653Z,34.45
2018-07-26T09:18:14.186Z,34.54
2018-07-26T09:19:13.918Z,34.58
2018-07-26T09:20:14.176Z,34.64
2018-07-26T09:21:13.923Z,34.63
2018-07-26T09:22:13.905Z,34.6
2018-07-26T09:23:13.909Z,34.58
2018-07-26T09:24:14.176Z,34.51
2018-07-26T09:25:13.914Z,34.46
2018-07-26T09:26:14.035Z,34.61
2018-07-26T09:27:13.646Z,34.66
2018-07-26T09:28:13.902Z,34.92
2018-07-26T09:29:13.916Z,35.1
2018-07-26T09:30:14.193Z,35.18
2018-07-26T09:31:13.918Z,35.15
2018-07-26T09:32:13.645Z,34.92
2018-07-26T09:33:13.980Z,34.86
2018-07-26T09:34:13.647Z,34.8
2018-07-26T09:35:14.171Z,34.77
2018-07-26T09:36:13.904Z,34.6
2018-07-26T09:37:13.910Z,34.5
2018-07-26T09:38:14.172Z,34.44
2018-07-26T09:39:13.908Z,34.44
2018-07-26T09:40:14.176Z,34.29
2018-07-26T09:41:13.737Z,34.31
2018-07-26T09:42:13.899Z,34.19
2018-07-26T09:43:14.167Z,34.11
2018-07-26T09:44:13.897Z,34.08
2018-07-26T09:45:14.167Z,34.04
2018-07-26T09:46:13.901Z,34.02
2018-07-26T09:47:13.943Z,33.97
2018-07-26T09:48:13.896Z,33.97
2018-07-26T09:49:13.904Z,33.97
2018-07-26T09:50:13.890Z,33.89
2018-07-26T09:51:13.889Z,34.05
2018-07-26T09:52:14.179Z,34.05
2018-07-26T09:53:13.628Z,34.04
2018-07-26T09:54:13.634Z,34.17
2018-07-26T09:55:13.887Z,34.16
2018-07-26T09:56:13.896Z,34.09
2018-07-26T09:57:13.884Z,34.05
2018-07-26T09:58:13.620Z,34.04
2018-07-26T09:59:14.147Z,34.01
2018-07-26T10:00:13.633Z,34.14
2018-07-26T10:01:13.879Z,34
2018-07-26T10:02:13.880Z,34.07
2018-07-26T10:03:13.929Z,34.04
2018-07-26T10:04:13.880Z,34.19
2018-07-26T10:05:14.140Z,34.22
2018-07-26T10:06:13.875Z,34.41
2018-07-26T10:07:13.615Z,34.45
2018-07-26T10:08:13.882Z,34.41
2018-07-26T10:09:14.150Z,34.24
2018-07-26T10:10:13.873Z,34.27
2018-07-26T10:11:13.867Z,34.29
2018-07-26T10:12:13.871Z,34.27
2018-07-26T10:13:14.067Z,34.41
2018-07-26T10:14:13.865Z,34.63
2018-07-26T10:15:13.599Z,34.58
2018-07-26T10:16:14.131Z,34.61
2018-07-26T10:17:13.600Z,34.6
2018-07-26T10:18:13.601Z,34.46
2018-07-26T10:19:14.130Z,34.46
2018-07-26T10:20:14.065Z,34.45
2018-07-26T10:21:13.859Z,34.39
2018-07-26T10:22:13.872Z,34.36
2018-07-26T10:23:13.848Z,34.46
2018-07-26T10:24:13.851Z,34.42
2018-07-26T10:25:13.851Z,34.44
2018-07-26T10:26:13.850Z,34.44
2018-07-26T10:27:13.852Z,34.34
2018-07-26T10:28:13.850Z,34.36
2018-07-26T10:29:13.580Z,34.39
2018-07-26T10:30:13.590Z,34.53
2018-07-26T10:31:14.105Z,34.51
2018-07-26T10:32:14.106Z,34.6
2018-07-26T10:33:13.851Z,34.72
2018-07-26T10:34:13.857Z,34.84
2018-07-26T10:35:13.839Z,35.17
2018-07-26T10:36:14.150Z,35.36
2018-07-26T10:37:14.108Z,35.45
2018-07-26T10:38:14.111Z,35.77
2018-07-26T10:39:14.106Z,36.33
2018-07-26T10:40:13.586Z,36.99
2018-07-26T10:41:13.853Z,37.68
2018-07-26T10:42:13.858Z,38.29
2018-07-26T10:43:13.859Z,38.76
2018-07-26T10:44:14.133Z,39.27
2018-07-26T10:45:13.865Z,39.81
2018-07-26T10:46:13.877Z,40.05
2018-07-26T10:47:13.617Z,40.21
2018-07-26T10:48:14.139Z,40.72
2018-07-26T10:49:14.157Z,41.05
2018-07-26T10:50:14.182Z,41.25
2018-07-26T10:51:13.906Z,41.47
2018-07-26T10:52:13.902Z,41.74
2018-07-26T10:53:14.180Z,41.75
2018-07-26T10:54:13.913Z,41.9
2018-07-26T10:55:13.925Z,41.98
2018-07-26T10:56:14.193Z,42.08
2018-07-26T10:57:14.207Z,42.16
2018-07-26T10:58:14.201Z,41.94
2018-07-26T10:59:13.690Z,41.61
2018-07-26T11:00:13.999Z,41.61
2018-07-26T11:01:13.964Z,41.78
2018-07-26T11:02:14.239Z,42.09
2018-07-26T11:03:13.982Z,42.08
2018-07-26T11:04:13.726Z,42.09
2018-07-26T11:05:14.000Z,42.32
2018-07-26T11:06:14.010Z,42.53
2018-07-26T11:07:13.780Z,42.75
2018-07-26T11:08:14.284Z,42.94
2018-07-26T11:09:14.034Z,43.09
2018-07-26T11:10:14.058Z,43.27
2018-07-26T11:11:14.051Z,43.53
2018-07-26T11:12:13.789Z,43.48
2018-07-26T11:13:14.069Z,43.39
2018-07-26T11:14:14.082Z,43.04
2018-07-26T11:15:14.167Z,42.99
2018-07-26T11:16:13.830Z,43.03
2018-07-26T11:17:14.371Z,43.19
2018-07-26T11:18:13.852Z,43.32
2018-07-26T11:19:14.131Z,43.26
2018-07-26T11:20:14.396Z,43.3
2018-07-26T11:21:14.431Z,43.3
2018-07-26T11:22:14.420Z,43.48
2018-07-26T11:23:14.157Z,43.68
2018-07-26T11:24:14.298Z,43.23
2018-07-26T11:25:14.444Z,42.99
2018-07-26T11:26:13.925Z,42.76
2018-07-26T11:27:14.549Z,42.75
2018-07-26T11:28:14.473Z,42.92
2018-07-26T11:29:14.492Z,43.07
2018-07-26T11:30:14.229Z,43.22
2018-07-26T11:31:14.240Z,43.34
2018-07-26T11:32:14.526Z,43.56
2018-07-26T11:33:14.261Z,43.86
2018-07-26T11:34:14.269Z,43.9
2018-07-26T11:35:14.018Z,44.14
2018-07-26T11:36:14.299Z,44.28
2018-07-26T11:37:14.044Z,44.36
2018-07-26T11:38:14.313Z,44.38
2018-07-26T11:39:14.065Z,44.59
2018-07-26T11:40:14.333Z,44.84
2018-07-26T11:41:14.343Z,45.05
2018-07-26T11:42:14.359Z,45.19
2018-07-26T11:43:14.626Z,45.39
2018-07-26T11:44:14.643Z,45.56
2018-07-26T11:45:14.398Z,45.39
2018-07-26T11:46:14.402Z,44.97
2018-07-26T11:47:14.675Z,45.02
2018-07-26T11:48:14.425Z,45.08
2018-07-26T11:49:14.428Z,45.04
2018-07-26T11:50:14.982Z,45.18
2018-07-26T11:51:14.727Z,45.08
2018-07-26T11:52:14.202Z,45.15
2018-07-26T11:53:14.753Z,45.18
2018-07-26T11:54:14.228Z,45.16
2018-07-26T11:55:14.233Z,45.24
2018-07-26T11:56:14.509Z,45.05
2018-07-26T11:57:14.788Z,45.16
2018-07-26T11:58:14.537Z,45.28
2018-07-26T11:59:14.543Z,45.54
2018-07-26T12:00:14.830Z,45.49
2018-07-26T12:01:14.626Z,45.59
2018-07-26T12:02:14.848Z,45.83
2018-07-26T12:03:14.866Z,45.84
2018-07-26T12:04:14.871Z,45.83
2018-07-26T12:05:14.631Z,45.81
2018-07-26T12:06:14.629Z,45.81
2018-07-26T12:07:14.903Z,45.76
2018-07-26T12:08:14.789Z,45.56
2018-07-26T12:09:14.672Z,45.45
2018-07-26T12:10:14.411Z,45.46
2018-07-26T12:11:14.683Z,45.5
2018-07-26T12:12:14.967Z,45.35
2018-07-26T12:13:14.915Z,45.32
2018-07-26T12:14:15.073Z,45.16
2018-07-26T12:15:15.012Z,45.28
2018-07-26T12:16:14.748Z,45.09
2018-07-26T12:17:14.758Z,45.04
2018-07-26T12:18:14.518Z,44.97
2018-07-26T12:19:14.790Z,45.19
2018-07-26T12:20:14.807Z,45.39
2018-07-26T12:21:14.804Z,45.49
2018-07-26T12:22:14.557Z,45.47
2018-07-26T12:23:14.942Z,45.42
2018-07-26T12:24:14.843Z,45.58
2018-07-26T12:25:15.142Z,45.64
2018-07-26T12:26:15.126Z,45.87
2018-07-26T12:27:15.343Z,45.8
2018-07-26T12:28:14.631Z,45.49
2018-07-26T12:29:14.902Z,45.54
2018-07-26T12:30:14.914Z,45.59
2018-07-26T12:31:14.988Z,44.62
2018-07-26T12:32:15.208Z,44.48
2018-07-26T12:33:14.985Z,44.65
2018-07-26T12:34:14.963Z,44.89
2018-07-26T12:35:15.253Z,45.09
2018-07-26T12:36:15.252Z,45.25
2018-07-26T12:37:15.024Z,45.31
2018-07-26T12:38:15.296Z,45.39
2018-07-26T12:39:15.286Z,45.61
2018-07-26T12:40:14.773Z,45.88
2018-07-26T12:41:15.199Z,46.1
2018-07-26T12:42:15.061Z,46.29
2018-07-26T12:43:15.075Z,46.37
2018-07-26T12:44:14.817Z,46.41
2018-07-26T12:45:15.371Z,46.29
2018-07-26T12:46:15.112Z,46.02
2018-07-26T12:47:15.120Z,45.65
2018-07-26T12:48:15.411Z,45.68
2018-07-26T12:49:15.144Z,45.58
2018-07-26T12:50:15.154Z,45.59
2018-07-26T12:51:15.181Z,45.62
2018-07-26T12:52:15.441Z,45.71
2018-07-26T12:53:15.553Z,45.83
2018-07-26T12:54:15.200Z,45.87